createdAt,value
2022-12-20T00:01:34.280Z,0.70
2022-12-20T00:04:05.575Z,0.70
2022-12-20T00:06:35.730Z,0.70
2022-12-20T00:09:06.667Z,0.70
2022-12-20T00:11:34.641Z,0.70
2022-12-20T00:14:01.790Z,0.80
2022-12-20T00:16:29.796Z,0.80
2022-12-20T00:19:00.569Z,0.80
2022-12-20T00:21:28.636Z,0.80
2022-12-20T00:23:56.089Z,0.80
2022-12-20T00:26:30.271Z,0.80
2022-12-20T00:28:57.731Z,0.80
2022-12-20T00:31:27.179Z,0.80
2022-12-20T00:33:56.936Z,0.80
2022-12-20T00:36:27.082Z,0.80
2022-12-20T00:38:56.486Z,0.80
2022-12-20T00:41:28.012Z,0.80
2022-12-20T00:43:54.873Z,0.80
2022-12-20T00:46:23.413Z,0.70
2022-12-20T00:48:51.185Z,0.70
2022-12-20T00:51:25.363Z,0.70
2022-12-20T00:53:53.535Z,0.60
2022-12-20T00:56:20.689Z,0.60
2022-12-20T00:58:47.916Z,0.60
2022-12-20T01:01:24.816Z,0.60
2022-12-20T01:03:53.069Z,0.60
2022-12-20T01:06:21.400Z,0.60
2022-12-20T01:08:48.247Z,0.60
2022-12-20T01:11:23.598Z,0.60
2022-12-20T01:13:54.011Z,0.60
2022-12-20T01:16:36.845Z,0.60
2022-12-20T01:19:04.982Z,0.50
2022-12-20T01:21:31.978Z,0.50
2022-12-20T01:23:58.874Z,0.60
2022-12-20T01:26:29.187Z,0.60
2022-12-20T01:28:59.820Z,0.60
2022-12-20T01:31:28.524Z,0.60
2022-12-20T01:33:55.454Z,0.60
2022-12-20T01:36:25.696Z,0.70
2022-12-20T01:39:08.239Z,0.70
2022-12-20T01:41:37.042Z,0.60
2022-12-20T01:44:05.753Z,0.60
2022-12-20T01:46:36.370Z,0.60
2022-12-20T01:49:18.312Z,0.60
2022-12-20T01:51:55.139Z,0.60
2022-12-20T01:54:56.117Z,0.60
2022-12-20T01:57:36.039Z,0.60
2022-12-20T02:00:05.140Z,0.60
2022-12-20T02:02:33.518Z,0.60
2022-12-20T02:05:00.636Z,0.60
2022-12-20T02:07:32.074Z,0.60
2022-12-20T02:10:01.894Z,0.50
2022-12-20T02:12:42.329Z,0.60
2022-12-20T02:15:24.198Z,0.50
2022-12-20T02:18:25.485Z,0.50
2022-12-20T02:21:14.269Z,0.40
2022-12-20T02:24:01.696Z,0.40
2022-12-20T02:27:17.199Z,0.40
2022-12-20T02:30:21.036Z,0.40
2022-12-20T02:33:08.372Z,0.40
2022-12-20T02:35:38.505Z,0.40
2022-12-20T02:38:34.704Z,0.40
2022-12-20T02:41:11.708Z,0.40
2022-12-20T02:44:02.938Z,0.50
2022-12-20T02:46:32.392Z,0.50
2022-12-20T02:49:07.184Z,0.60
2022-12-20T02:51:34.893Z,0.60
2022-12-20T02:54:02.363Z,0.70
2022-12-20T02:56:52.437Z,0.70
2022-12-20T02:59:29.740Z,0.70
2022-12-20T03:01:57.101Z,0.70
2022-12-20T03:04:29.180Z,0.80
2022-12-20T03:07:09.729Z,0.80
2022-12-20T03:09:40.537Z,0.80
2022-12-20T03:12:11.618Z,0.80
2022-12-20T03:14:39.820Z,0.80
2022-12-20T03:17:08.229Z,0.80
2022-12-20T03:19:37.360Z,0.80
2022-12-20T03:22:04.526Z,0.80
2022-12-20T03:24:32.491Z,0.70
2022-12-20T03:26:59.293Z,0.70
2022-12-20T03:29:27.031Z,0.70
2022-12-20T03:31:53.858Z,0.70
2022-12-20T03:34:20.589Z,0.70
2022-12-20T03:36:47.376Z,0.70
2022-12-20T03:39:14.125Z,0.70
2022-12-20T03:41:40.849Z,0.70
2022-12-20T03:44:07.795Z,0.80
2022-12-20T03:46:35.441Z,0.80
2022-12-20T03:49:02.261Z,0.80
2022-12-20T03:51:29.087Z,0.80
2022-12-20T03:53:55.856Z,0.80
2022-12-20T03:56:22.843Z,0.80
2022-12-20T03:58:50.628Z,0.80
2022-12-20T04:01:27.728Z,0.80
2022-12-20T04:03:55.766Z,0.80
2022-12-20T04:06:24.066Z,0.80
2022-12-20T04:08:50.803Z,0.80
2022-12-20T04:11:17.661Z,0.80
2022-12-20T04:13:46.829Z,0.80
2022-12-20T04:16:16.759Z,0.80
2022-12-20T04:18:44.161Z,0.80
2022-12-20T04:21:12.418Z,0.70
2022-12-20T04:23:42.220Z,0.70
2022-12-20T04:26:10.909Z,0.70
2022-12-20T04:28:37.742Z,0.70
2022-12-20T04:31:04.961Z,0.70
2022-12-20T04:33:32.006Z,0.70
2022-12-20T04:35:59.075Z,0.70
2022-12-20T04:38:25.831Z,0.70
2022-12-20T04:40:55.073Z,0.70
2022-12-20T04:43:24.035Z,0.70
2022-12-20T04:45:53.477Z,0.70
2022-12-20T04:48:55.140Z,0.70
2022-12-20T04:51:07.521Z,0.70
2022-12-20T04:53:49.519Z,0.70
2022-12-20T04:56:24.250Z,0.70
2022-12-20T04:58:53.029Z,0.70
2022-12-20T05:01:20.699Z,0.70
2022-12-20T05:03:49.671Z,0.70
2022-12-20T05:06:17.945Z,0.70
2022-12-20T05:08:45.014Z,0.80
2022-12-20T05:11:12.539Z,0.80
2022-12-20T05:13:39.518Z,0.80
2022-12-20T05:16:06.835Z,0.80
2022-12-20T05:18:33.897Z,0.80
2022-12-20T05:21:20.388Z,0.80
2022-12-20T05:24:06.319Z,0.80
2022-12-20T05:26:37.605Z,0.80
2022-12-20T05:29:06.405Z,0.80
2022-12-20T05:31:33.410Z,0.80
2022-12-20T05:34:00.362Z,0.90
2022-12-20T05:36:27.420Z,0.90
2022-12-20T05:38:58.253Z,0.90
2022-12-20T05:41:30.388Z,1.00
2022-12-20T05:43:57.417Z,1.00
2022-12-20T05:46:24.237Z,1.00
2022-12-20T05:48:51.024Z,1.00
2022-12-20T05:51:17.754Z,1.00
2022-12-20T05:53:44.678Z,1.00
2022-12-20T05:56:12.026Z,1.10
2022-12-20T05:58:38.926Z,1.10
2022-12-20T06:01:08.026Z,1.10
2022-12-20T06:03:34.877Z,1.10
2022-12-20T06:06:01.746Z,1.10
2022-12-20T06:08:28.507Z,1.20
2022-12-20T06:10:55.959Z,1.20
2022-12-20T06:13:22.695Z,1.20
2022-12-20T06:15:49.482Z,1.20
2022-12-20T06:18:16.627Z,1.20
2022-12-20T06:20:43.374Z,1.20
2022-12-20T06:23:10.140Z,1.30
2022-12-20T06:25:38.123Z,1.30
2022-12-20T06:28:05.723Z,1.30
2022-12-20T06:30:34.167Z,1.30
2022-12-20T06:33:02.306Z,1.30
2022-12-20T06:35:30.072Z,1.30
2022-12-20T06:37:57.648Z,1.40
2022-12-20T06:40:24.843Z,1.40
2022-12-20T06:42:51.940Z,1.40
2022-12-20T06:45:18.726Z,1.40
2022-12-20T06:47:45.470Z,1.40
2022-12-20T06:50:12.342Z,1.40
2022-12-20T06:52:39.143Z,1.40
2022-12-20T06:55:06.476Z,1.40
2022-12-20T06:57:33.269Z,1.40
2022-12-20T07:00:00.099Z,1.40
2022-12-20T07:02:27.978Z,1.40
2022-12-20T07:04:55.074Z,1.40
2022-12-20T07:07:21.980Z,1.40
2022-12-20T07:09:48.880Z,1.50
2022-12-20T07:12:15.960Z,1.50
2022-12-20T07:14:42.643Z,1.50
2022-12-20T07:17:10.822Z,1.50
2022-12-20T07:19:41.317Z,1.50
2022-12-20T07:22:12.464Z,1.50
2022-12-20T07:24:39.794Z,1.50
2022-12-20T07:27:06.512Z,1.60
2022-12-20T07:29:33.425Z,1.60
2022-12-20T07:32:00.225Z,1.60
2022-12-20T07:34:26.997Z,1.60
2022-12-20T07:36:53.756Z,1.60
2022-12-20T07:39:20.491Z,1.60
2022-12-20T07:41:47.220Z,1.60
2022-12-20T07:44:14.276Z,1.60
2022-12-20T07:46:41.121Z,1.60
2022-12-20T07:49:09.193Z,1.70
2022-12-20T07:51:41.192Z,1.70
2022-12-20T07:54:16.111Z,1.70
2022-12-20T07:56:47.611Z,1.70
2022-12-20T07:59:20.351Z,1.70
2022-12-20T08:01:48.918Z,1.70
2022-12-20T08:04:25.156Z,1.80
2022-12-20T08:06:55.795Z,1.80
2022-12-20T08:09:25.918Z,1.80
2022-12-20T08:11:53.515Z,1.80
2022-12-20T08:14:20.946Z,1.90
2022-12-20T08:16:47.737Z,1.90
2022-12-20T08:19:14.545Z,1.90
2022-12-20T08:21:41.261Z,2.00
2022-12-20T08:24:08.389Z,2.00
2022-12-20T08:26:41.887Z,2.10
2022-12-20T08:29:09.141Z,2.10
2022-12-20T08:31:45.826Z,2.10
2022-12-20T08:34:16.533Z,2.20
2022-12-20T08:36:43.634Z,2.20
2022-12-20T08:39:11.339Z,2.30
2022-12-20T08:41:38.297Z,2.30
2022-12-20T08:44:06.780Z,2.40
2022-12-20T08:46:33.990Z,2.40
2022-12-20T08:49:00.804Z,2.40
2022-12-20T08:51:27.696Z,2.50
2022-12-20T08:53:54.486Z,2.50
2022-12-20T08:56:21.796Z,2.60
2022-12-20T08:58:48.564Z,2.60
2022-12-20T09:01:19.335Z,2.70
2022-12-20T09:03:47.715Z,2.70
2022-12-20T09:06:19.683Z,2.70
2022-12-20T09:08:47.891Z,2.80
2022-12-20T09:11:23.006Z,2.90
2022-12-20T09:13:53.205Z,2.90
2022-12-20T09:16:23.572Z,3.00
2022-12-20T09:19:02.522Z,3.10
2022-12-20T09:21:32.804Z,3.10
2022-12-20T09:23:59.639Z,3.20
2022-12-20T09:26:26.547Z,3.20
2022-12-20T09:28:53.879Z,3.30
2022-12-20T09:31:24.266Z,3.30
2022-12-20T09:33:55.708Z,3.40
2022-12-20T09:36:24.465Z,3.40
2022-12-20T09:38:51.818Z,3.40
2022-12-20T09:41:40.226Z,3.40
2022-12-20T09:44:31.559Z,3.40
2022-12-20T09:47:10.797Z,3.40
2022-12-20T09:49:45.461Z,3.40
2022-12-20T09:52:24.825Z,3.40
2022-12-20T09:55:27.522Z,3.40
2022-12-20T09:58:38.236Z,3.40
2022-12-20T10:01:32.571Z,3.40
2022-12-20T10:04:31.174Z,3.50
2022-12-20T10:07:15.764Z,3.40
2022-12-20T10:10:09.860Z,3.40
2022-12-20T10:13:05.475Z,3.40
2022-12-20T10:15:45.640Z,3.40
2022-12-20T10:18:40.183Z,3.30
2022-12-20T10:21:45.923Z,3.30
2022-12-20T10:24:19.672Z,3.20
2022-12-20T10:26:50.831Z,3.20
2022-12-20T10:29:20.970Z,3.30
2022-12-20T10:31:58.620Z,3.30
2022-12-20T10:34:25.901Z,3.40
2022-12-20T10:37:16.180Z,3.40
2022-12-20T10:39:51.866Z,3.50
2022-12-20T10:42:38.963Z,3.60
2022-12-20T10:45:20.825Z,3.70
2022-12-20T10:47:51.429Z,3.80
2022-12-20T10:50:22.688Z,3.90
2022-12-20T10:53:21.754Z,4.00
2022-12-20T10:55:48.979Z,4.00
2022-12-20T10:58:31.859Z,4.10
2022-12-20T11:01:17.231Z,4.10
2022-12-20T11:03:59.543Z,4.10
2022-12-20T11:06:48.634Z,4.10
2022-12-20T11:09:32.210Z,4.10
2022-12-20T11:12:16.582Z,4.10
2022-12-20T11:14:46.277Z,4.10
2022-12-20T11:17:12.909Z,4.10
2022-12-20T11:20:11.600Z,4.10
2022-12-20T11:23:00.189Z,4.20
2022-12-20T11:26:12.744Z,4.30
2022-12-20T11:29:00.940Z,4.30
2022-12-20T11:31:56.875Z,4.40
2022-12-20T11:34:57.618Z,4.40
2022-12-20T11:37:29.260Z,4.40
2022-12-20T11:40:30.285Z,4.50
2022-12-20T11:43:21.046Z,4.40
2022-12-20T11:46:27.696Z,4.50
2022-12-20T11:49:16.792Z,4.50
2022-12-20T11:51:58.418Z,4.60
2022-12-20T11:54:36.102Z,4.60
2022-12-20T11:57:25.052Z,4.50
2022-12-20T12:00:02.597Z,4.50
2022-12-20T12:02:56.417Z,4.50
2022-12-20T12:05:56.550Z,4.40
2022-12-20T12:08:50.316Z,4.40
2022-12-20T12:12:05.932Z,4.40
2022-12-20T12:15:02.173Z,4.30
2022-12-20T12:17:48.373Z,4.30
2022-12-20T12:21:03.547Z,4.30
2022-12-20T12:24:19.196Z,4.30
2022-12-20T12:26:46.143Z,4.40
2022-12-20T12:29:19.868Z,4.50
2022-12-20T12:32:02.162Z,4.60
2022-12-20T12:35:05.450Z,4.70
2022-12-20T12:37:54.810Z,4.90
2022-12-20T12:40:30.869Z,5.00
2022-12-20T12:43:18.567Z,5.10
2022-12-20T12:45:52.321Z,5.20
2022-12-20T12:48:47.345Z,5.20
2022-12-20T12:51:22.791Z,5.20
2022-12-20T12:54:01.484Z,5.20
2022-12-20T12:56:43.865Z,5.10
2022-12-20T12:59:33.727Z,5.10
2022-12-20T13:02:06.002Z,5.20
2022-12-20T13:04:58.650Z,5.20
2022-12-20T13:07:35.120Z,5.20
2022-12-20T13:10:09.714Z,5.30
2022-12-20T13:12:36.400Z,5.30
2022-12-20T13:15:21.556Z,5.30
2022-12-20T13:17:57.337Z,5.20
2022-12-20T13:20:33.359Z,5.20
2022-12-20T13:23:09.233Z,5.20
2022-12-20T13:25:49.364Z,5.20
2022-12-20T13:28:19.041Z,5.10
2022-12-20T13:30:48.503Z,5.00
2022-12-20T13:33:41.885Z,5.00
2022-12-20T13:36:11.410Z,4.90
2022-12-20T13:38:44.787Z,4.90
2022-12-20T13:41:45.157Z,4.80
2022-12-20T13:44:14.680Z,4.80
2022-12-20T13:46:49.512Z,4.70
2022-12-20T13:49:29.522Z,4.60
2022-12-20T13:52:22.364Z,4.60
2022-12-20T13:54:55.001Z,4.60
2022-12-20T13:57:33.302Z,4.50
2022-12-20T14:00:07.308Z,4.40
2022-12-20T14:02:41.836Z,4.40
2022-12-20T14:05:23.265Z,4.30
2022-12-20T14:08:07.462Z,4.30
2022-12-20T14:10:35.827Z,4.30
2022-12-20T14:13:03.085Z,4.20
2022-12-20T14:15:33.629Z,4.20
2022-12-20T14:18:27.530Z,4.10
2022-12-20T14:21:05.487Z,4.10
2022-12-20T14:23:41.287Z,4.00
2022-12-20T14:26:15.836Z,4.00
2022-12-20T14:28:46.836Z,3.90
2022-12-20T14:31:33.473Z,3.90
2022-12-20T14:34:15.167Z,3.90
2022-12-20T14:36:45.581Z,3.90
2022-12-20T14:39:34.107Z,3.80
2022-12-20T14:42:12.525Z,3.80
2022-12-20T14:44:39.673Z,3.80
2022-12-20T14:47:28.245Z,3.80
2022-12-20T14:50:01.708Z,3.80
2022-12-20T14:52:37.868Z,3.80
2022-12-20T14:55:44.167Z,3.80
2022-12-20T14:58:32.654Z,3.80
2022-12-20T15:01:31.041Z,3.80
2022-12-20T15:04:00.464Z,3.80
2022-12-20T15:06:45.772Z,3.70
2022-12-20T15:09:12.646Z,3.70
2022-12-20T15:11:42.643Z,3.80
2022-12-20T15:14:21.717Z,3.80
2022-12-20T15:16:49.392Z,3.70
2022-12-20T15:19:16.267Z,3.70
2022-12-20T15:21:45.497Z,3.70
2022-12-20T15:24:21.689Z,3.70
2022-12-20T15:26:49.415Z,3.70
2022-12-20T15:29:24.287Z,3.60
2022-12-20T15:32:14.434Z,3.60
2022-12-20T15:34:41.594Z,3.60
2022-12-20T15:37:18.184Z,3.60
2022-12-20T15:39:45.841Z,3.60
2022-12-20T15:42:18.436Z,3.60
2022-12-20T15:44:46.132Z,3.50
2022-12-20T15:47:13.948Z,3.50
2022-12-20T15:49:47.890Z,3.50
2022-12-20T15:52:22.218Z,3.50
2022-12-20T15:54:49.062Z,3.50
2022-12-20T15:57:15.886Z,3.50
2022-12-20T16:00:01.202Z,3.50
2022-12-20T16:02:31.053Z,3.50
2022-12-20T16:04:58.841Z,3.50
2022-12-20T16:07:25.841Z,3.50
2022-12-20T16:09:52.751Z,3.50
2022-12-20T16:12:26.952Z,3.50
2022-12-20T16:14:53.793Z,3.40
2022-12-20T16:17:20.504Z,3.50
2022-12-20T16:19:47.240Z,3.40
2022-12-20T16:22:21.935Z,3.40
2022-12-20T16:24:49.664Z,3.40
2022-12-20T16:27:16.469Z,3.40
2022-12-20T16:29:43.184Z,3.40
2022-12-20T16:32:18.192Z,3.40
2022-12-20T16:34:45.550Z,3.30
2022-12-20T16:37:12.732Z,3.30
2022-12-20T16:39:40.318Z,3.30
2022-12-20T16:42:18.499Z,3.20
2022-12-20T16:44:46.141Z,3.20
2022-12-20T16:47:14.801Z,3.20
2022-12-20T16:49:49.645Z,3.10
2022-12-20T16:52:19.953Z,3.10
2022-12-20T16:54:46.726Z,3.10
2022-12-20T16:57:13.541Z,3.00
2022-12-20T16:59:40.396Z,3.00
2022-12-20T17:02:43.088Z,3.00
2022-12-20T17:05:26.108Z,2.90
2022-12-20T17:07:53.065Z,2.90
2022-12-20T17:10:20.536Z,2.90
2022-12-20T17:12:48.219Z,2.90
2022-12-20T17:15:29.277Z,2.80
2022-12-20T17:17:56.331Z,2.80
2022-12-20T17:20:24.830Z,2.90
2022-12-20T17:22:54.968Z,2.80
2022-12-20T17:25:32.646Z,2.80
2022-12-20T17:27:59.376Z,2.80
2022-12-20T17:30:26.435Z,2.80
2022-12-20T17:32:54.080Z,2.70
2022-12-20T17:35:24.778Z,2.70
2022-12-20T17:37:56.177Z,2.70
2022-12-20T17:40:28.107Z,2.70
2022-12-20T17:42:55.126Z,2.60
2022-12-20T17:45:26.078Z,2.60
2022-12-20T17:47:54.338Z,2.70
2022-12-20T17:50:22.245Z,2.70
2022-12-20T17:52:49.069Z,2.70
2022-12-20T17:55:27.857Z,2.70
2022-12-20T17:57:55.749Z,2.70
2022-12-20T18:00:39.065Z,2.80
2022-12-20T18:03:07.038Z,2.80
2022-12-20T18:05:35.010Z,2.80
2022-12-20T18:08:01.729Z,2.80
2022-12-20T18:10:28.489Z,2.80
2022-12-20T18:12:55.240Z,2.90
2022-12-20T18:15:22.038Z,2.90
2022-12-20T18:17:48.808Z,2.90
2022-12-20T18:20:20.982Z,3.00
2022-12-20T18:22:47.729Z,3.00
2022-12-20T18:25:18.001Z,3.00
2022-12-20T18:27:44.748Z,3.00
2022-12-20T18:30:12.850Z,3.10
2022-12-20T18:32:40.846Z,3.10
2022-12-20T18:35:09.268Z,3.10
2022-12-20T18:37:36.010Z,3.10
2022-12-20T18:40:03.901Z,3.20
2022-12-20T18:42:30.614Z,3.10
2022-12-20T18:44:57.328Z,3.10
2022-12-20T18:47:24.135Z,3.10
2022-12-20T18:49:50.834Z,3.10
2022-12-20T18:52:17.565Z,3.10
2022-12-20T18:54:44.538Z,3.00
2022-12-20T18:57:11.420Z,3.10
2022-12-20T18:59:38.179Z,3.10
2022-12-20T19:02:05.154Z,3.10
2022-12-20T19:04:32.151Z,3.00
2022-12-20T19:06:58.967Z,3.00
2022-12-20T19:09:25.842Z,3.00
2022-12-20T19:11:56.992Z,3.00
2022-12-20T19:14:25.247Z,3.10
2022-12-20T19:16:52.147Z,3.00
2022-12-20T19:19:19.009Z,3.10
2022-12-20T19:21:45.823Z,3.10
2022-12-20T19:24:13.469Z,3.10
2022-12-20T19:26:40.376Z,3.10
2022-12-20T19:29:08.324Z,3.00
2022-12-20T19:31:37.448Z,3.00
2022-12-20T19:34:08.854Z,3.10
2022-12-20T19:36:45.599Z,3.10
2022-12-20T19:39:22.857Z,3.10
2022-12-20T19:42:21.527Z,3.10
2022-12-20T19:44:37.750Z,3.10
2022-12-20T19:47:04.502Z,3.20
2022-12-20T19:49:31.214Z,3.20
2022-12-20T19:51:57.972Z,3.20
2022-12-20T19:54:24.713Z,3.20
2022-12-20T19:56:51.486Z,3.20
2022-12-20T19:59:18.246Z,3.30
2022-12-20T20:01:45.167Z,3.60
2022-12-20T20:04:11.952Z,3.30
2022-12-20T20:06:38.679Z,3.30
2022-12-20T20:09:05.908Z,3.30
2022-12-20T20:11:32.677Z,3.30
2022-12-20T20:14:02.069Z,3.30
2022-12-20T20:16:28.863Z,3.40
2022-12-20T20:18:55.636Z,3.40
2022-12-20T20:21:23.878Z,3.40
2022-12-20T20:23:52.894Z,3.40
2022-12-20T20:26:26.961Z,3.40
2022-12-20T20:28:54.062Z,3.40
2022-12-20T20:31:21.926Z,3.40
2022-12-20T20:33:49.545Z,3.30
2022-12-20T20:36:20.202Z,3.30
2022-12-20T20:38:47.884Z,3.30
2022-12-20T20:41:15.288Z,3.30
2022-12-20T20:43:43.120Z,3.30
2022-12-20T20:46:13.735Z,3.30
2022-12-20T20:48:41.793Z,3.30
2022-12-20T20:51:08.964Z,3.20
2022-12-20T20:53:35.907Z,3.30
2022-12-20T20:56:04.889Z,3.30
2022-12-20T20:58:33.183Z,3.20
2022-12-20T21:01:03.106Z,3.20
2022-12-20T21:03:31.724Z,3.20
2022-12-20T21:08:45.512Z,3.20
2022-12-20T21:11:12.441Z,3.20
2022-12-20T21:13:39.434Z,3.20
2022-12-20T21:16:12.668Z,3.20
2022-12-20T21:18:40.008Z,3.20
2022-12-20T21:21:12.807Z,3.20
2022-12-20T21:23:44.968Z,3.30
2022-12-20T21:26:13.550Z,3.30
2022-12-20T21:28:40.733Z,3.30
2022-12-20T21:31:11.774Z,3.30
2022-12-20T21:33:39.357Z,3.30
2022-12-20T21:36:16.703Z,3.30
2022-12-20T21:38:52.778Z,3.30
2022-12-20T21:41:23.264Z,3.30
2022-12-20T21:43:51.265Z,3.40
2022-12-20T21:46:18.002Z,3.30
2022-12-20T21:48:45.892Z,3.40
2022-12-20T21:51:24.554Z,3.30
2022-12-20T21:53:55.441Z,3.40
2022-12-20T21:56:24.584Z,3.30
2022-12-20T21:58:51.908Z,3.40
2022-12-20T22:01:26.081Z,3.40
2022-12-20T22:04:02.846Z,3.40
2022-12-20T22:06:29.967Z,3.40
2022-12-20T22:09:01.093Z,3.40
2022-12-20T22:11:28.685Z,3.40
2022-12-20T22:13:56.082Z,3.40
2022-12-20T22:16:26.153Z,3.40
2022-12-20T22:18:55.095Z,3.40
2022-12-20T22:21:27.079Z,3.40
2022-12-20T22:23:58.303Z,3.40
2022-12-20T22:26:28.613Z,3.50
2022-12-20T22:29:05.317Z,3.50
2022-12-20T22:31:33.068Z,3.40
2022-12-20T22:34:00.679Z,3.50
2022-12-20T22:36:28.235Z,3.50
2022-12-20T22:38:56.880Z,3.50
2022-12-20T22:41:30.719Z,3.50
2022-12-20T22:43:59.352Z,3.50
2022-12-20T22:46:29.074Z,3.50
2022-12-20T22:48:57.400Z,3.50
2022-12-20T22:51:30.618Z,3.50
2022-12-20T22:53:58.256Z,3.50
2022-12-20T22:56:25.749Z,3.50
2022-12-20T22:58:52.737Z,3.50
2022-12-20T23:01:20.365Z,3.50
2022-12-20T23:03:48.164Z,3.50
2022-12-20T23:06:19.858Z,3.50
2022-12-20T23:08:47.594Z,3.40
2022-12-20T23:11:43.314Z,3.40
2022-12-20T23:14:38.828Z,3.40
2022-12-20T23:17:08.673Z,3.30
2022-12-20T23:19:57.214Z,3.30
2022-12-20T23:22:40.610Z,3.30
2022-12-20T23:25:17.228Z,3.20
2022-12-20T23:27:47.703Z,3.30
2022-12-20T23:30:18.649Z,3.30
2022-12-20T23:32:45.601Z,3.30
2022-12-20T23:35:15.608Z,3.30
2022-12-20T23:37:42.781Z,3.20
2022-12-20T23:40:11.763Z,3.20
2022-12-20T23:42:39.867Z,3.10
2022-12-20T23:45:07.365Z,3.10
2022-12-20T23:47:34.092Z,3.10
2022-12-20T23:50:00.805Z,3.10
2022-12-20T23:52:27.585Z,3.10
2022-12-20T23:54:54.321Z,3.10
2022-12-20T23:57:21.029Z,3.10
2022-12-20T23:59:47.759Z,3.10
